sensor_id;sensor_type;location;lat;lon;timestamp;P1;durP1;ratioP1;P2;durP2;ratioP2
52798;SDS011;38667;42.872;74.622;2022-10-31T00:02:14;10.98;;;3.33;;
52798;SDS011;38667;42.872;74.622;2022-10-31T00:04:41;4.80;;;2.83;;
52798;SDS011;38667;42.872;74.622;2022-10-31T00:07:07;7.07;;;3.22;;
52798;SDS011;38667;42.872;74.622;2022-10-31T00:09:33;6.60;;;3.47;;
52798;SDS011;38667;42.872;74.622;2022-10-31T00:12:01;7.25;;;2.70;;
52798;SDS011;38667;42.872;74.622;2022-10-31T00:14:27;5.10;;;3.38;;
52798;SDS011;38667;42.872;74.622;2022-10-31T00:16:54;6.43;;;3.72;;
52798;SDS011;38667;42.872;74.622;2022-10-31T00:19:20;5.45;;;3.00;;
52798;SDS011;38667;42.872;74.622;2022-10-31T00:21:46;8.05;;;3.17;;
52798;SDS011;38667;42.872;74.622;2022-10-31T00:24:13;5.30;;;2.88;;
52798;SDS011;38667;42.872;74.622;2022-10-31T00:26:39;6.32;;;3.00;;
52798;SDS011;38667;42.872;74.622;2022-10-31T00:29:07;5.78;;;2.90;;
52798;SDS011;38667;42.872;74.622;2022-10-31T00:31:33;5.28;;;3.30;;
52798;SDS011;38667;42.872;74.622;2022-10-31T00:33:59;8.20;;;3.90;;
52798;SDS011;38667;42.872;74.622;2022-10-31T00:36:26;5.53;;;3.33;;
52798;SDS011;38667;42.872;74.622;2022-10-31T00:38:52;5.55;;;3.38;;
52798;SDS011;38667;42.872;74.622;2022-10-31T00:41:18;3.53;;;2.45;;
52798;SDS011;38667;42.872;74.622;2022-10-31T00:43:45;5.32;;;2.50;;
52798;SDS011;38667;42.872;74.622;2022-10-31T00:46:12;4.25;;;2.70;;
52798;SDS011;38667;42.872;74.622;2022-10-31T00:48:39;4.65;;;2.85;;
52798;SDS011;38667;42.872;74.622;2022-10-31T00:51:05;4.65;;;2.80;;
52798;SDS011;38667;42.872;74.622;2022-10-31T00:53:32;4.05;;;2.80;;
52798;SDS011;38667;42.872;74.622;2022-10-31T00:55:59;6.82;;;3.33;;
52798;SDS011;38667;42.872;74.622;2022-10-31T00:58:25;40.25;;;12.80;;
52798;SDS011;38667;42.872;74.622;2022-10-31T01:00:51;48.70;;;15.10;;
52798;SDS011;38667;42.872;74.622;2022-10-31T01:03:19;24.50;;;9.13;;
52798;SDS011;38667;42.872;74.622;2022-10-31T01:05:46;25.35;;;8.45;;
52798;SDS011;38667;42.872;74.622;2022-10-31T01:08:24;41.15;;;12.07;;
52798;SDS011;38667;42.872;74.622;2022-10-31T01:10:58;33.45;;;10.70;;
52798;SDS011;38667;42.872;74.622;2022-10-31T01:13:25;36.80;;;11.80;;
52798;SDS011;38667;42.872;74.622;2022-10-31T01:15:53;16.42;;;9.93;;
52798;SDS011;38667;42.872;74.622;2022-10-31T01:18:21;14.80;;;10.07;;
52798;SDS011;38667;42.872;74.622;2022-10-31T01:20:48;13.38;;;8.70;;
52798;SDS011;38667;42.872;74.622;2022-10-31T01:23:22;14.05;;;8.88;;
52798;SDS011;38667;42.872;74.622;2022-10-31T01:25:49;8.20;;;5.00;;
52798;SDS011;38667;42.872;74.622;2022-10-31T01:28:23;8.68;;;5.82;;
52798;SDS011;38667;42.872;74.622;2022-10-31T01:30:49;11.40;;;6.32;;
52798;SDS011;38667;42.872;74.622;2022-10-31T01:33:15;13.38;;;8.38;;
52798;SDS011;38667;42.872;74.622;2022-10-31T01:35:43;16.15;;;8.07;;
52798;SDS011;38667;42.872;74.622;2022-10-31T01:38:10;14.13;;;7.50;;
52798;SDS011;38667;42.872;74.622;2022-10-31T01:40:36;13.00;;;6.65;;
52798;SDS011;38667;42.872;74.622;2022-10-31T01:43:02;20.13;;;8.40;;
52798;SDS011;38667;42.872;74.622;2022-10-31T01:45:29;17.52;;;8.07;;
52798;SDS011;38667;42.872;74.622;2022-10-31T01:47:55;14.48;;;7.53;;
52798;SDS011;38667;42.872;74.622;2022-10-31T01:50:26;10.85;;;6.78;;
52798;SDS011;38667;42.872;74.622;2022-10-31T01:52:57;12.75;;;7.00;;
52798;SDS011;38667;42.872;74.622;2022-10-31T01:55:25;12.13;;;5.97;;
52798;SDS011;38667;42.872;74.622;2022-10-31T01:57:55;12.48;;;5.80;;
52798;SDS011;38667;42.872;74.622;2022-10-31T02:03:06;12.07;;;6.82;;
52798;SDS011;38667;42.872;74.622;2022-10-31T02:07:39;7.25;;;4.57;;
52798;SDS011;38667;42.872;74.622;2022-10-31T02:10:10;5.38;;;3.33;;
52798;SDS011;38667;42.872;74.622;2022-10-31T02:12:37;4.72;;;3.15;;
52798;SDS011;38667;42.872;74.622;2022-10-31T02:15:04;7.82;;;4.13;;
52798;SDS011;38667;42.872;74.622;2022-10-31T02:17:32;8.48;;;5.25;;
52798;SDS011;38667;42.872;74.622;2022-10-31T02:20:00;6.93;;;4.13;;
52798;SDS011;38667;42.872;74.622;2022-10-31T02:22:34;11.45;;;5.47;;
52798;SDS011;38667;42.872;74.622;2022-10-31T02:25:19;10.07;;;5.18;;
52798;SDS011;38667;42.872;74.622;2022-10-31T02:28:10;9.38;;;5.30;;
52798;SDS011;38667;42.872;74.622;2022-10-31T02:31:08;9.50;;;4.93;;
52798;SDS011;38667;42.872;74.622;2022-10-31T02:33:44;7.30;;;4.93;;
52798;SDS011;38667;42.872;74.622;2022-10-31T02:36:16;11.55;;;5.25;;
52798;SDS011;38667;42.872;74.622;2022-10-31T02:38:48;14.40;;;7.00;;
52798;SDS011;38667;42.872;74.622;2022-10-31T02:41:25;10.07;;;5.80;;
52798;SDS011;38667;42.872;74.622;2022-10-31T02:44:09;12.07;;;6.88;;
52798;SDS011;38667;42.872;74.622;2022-10-31T02:46:44;12.13;;;6.95;;
52798;SDS011;38667;42.872;74.622;2022-10-31T02:49:16;16.02;;;8.73;;
52798;SDS011;38667;42.872;74.622;2022-10-31T02:51:48;15.88;;;8.65;;
52798;SDS011;38667;42.872;74.622;2022-10-31T02:54:17;14.05;;;8.18;;
52798;SDS011;38667;42.872;74.622;2022-10-31T02:56:44;11.35;;;7.75;;
52798;SDS011;38667;42.872;74.622;2022-10-31T02:59:11;16.65;;;8.18;;
52798;SDS011;38667;42.872;74.622;2022-10-31T03:02:02;9.65;;;6.60;;
52798;SDS011;38667;42.872;74.622;2022-10-31T03:07:30;9.32;;;5.93;;
52798;SDS011;38667;42.872;74.622;2022-10-31T03:10:07;14.35;;;6.63;;
52798;SDS011;38667;42.872;74.622;2022-10-31T03:12:43;15.60;;;7.10;;
52798;SDS011;38667;42.872;74.622;2022-10-31T03:15:17;13.35;;;7.60;;
52798;SDS011;38667;42.872;74.622;2022-10-31T03:17:52;13.73;;;7.47;;
52798;SDS011;38667;42.872;74.622;2022-10-31T03:20:24;14.48;;;7.05;;
52798;SDS011;38667;42.872;74.622;2022-10-31T03:22:55;10.95;;;7.30;;
52798;SDS011;38667;42.872;74.622;2022-10-31T03:25:24;11.65;;;7.35;;
52798;SDS011;38667;42.872;74.622;2022-10-31T03:27:51;13.63;;;6.20;;
52798;SDS011;38667;42.872;74.622;2022-10-31T03:30:18;12.10;;;6.43;;
52798;SDS011;38667;42.872;74.622;2022-10-31T03:32:46;10.63;;;5.50;;
52798;SDS011;38667;42.872;74.622;2022-10-31T03:35:15;10.98;;;5.70;;
52798;SDS011;38667;42.872;74.622;2022-10-31T03:37:44;13.60;;;6.32;;
52798;SDS011;38667;42.872;74.622;2022-10-31T03:40:12;8.13;;;5.75;;
52798;SDS011;38667;42.872;74.622;2022-10-31T03:42:41;13.13;;;5.57;;
52798;SDS011;38667;42.872;74.622;2022-10-31T03:45:12;10.27;;;5.85;;
52798;SDS011;38667;42.872;74.622;2022-10-31T03:47:40;10.40;;;6.25;;
52798;SDS011;38667;42.872;74.622;2022-10-31T03:50:09;17.33;;;6.68;;
52798;SDS011;38667;42.872;74.622;2022-10-31T03:52:40;15.57;;;7.15;;
52798;SDS011;38667;42.872;74.622;2022-10-31T03:55:10;16.70;;;6.55;;
52798;SDS011;38667;42.872;74.622;2022-10-31T03:57:43;12.23;;;4.70;;
52798;SDS011;38667;42.872;74.622;2022-10-31T04:00:12;11.50;;;5.15;;
52798;SDS011;38667;42.872;74.622;2022-10-31T04:02:40;12.90;;;4.68;;
52798;SDS011;38667;42.872;74.622;2022-10-31T04:05:09;10.02;;;4.80;;
52798;SDS011;38667;42.872;74.622;2022-10-31T04:07:40;7.68;;;4.25;;
52798;SDS011;38667;42.872;74.622;2022-10-31T04:10:11;6.15;;;4.38;;
52798;SDS011;38667;42.872;74.622;2022-10-31T04:12:40;12.98;;;4.57;;
52798;SDS011;38667;42.872;74.622;2022-10-31T04:15:08;22.23;;;5.20;;
52798;SDS011;38667;42.872;74.622;2022-10-31T04:17:37;24.52;;;5.90;;
52798;SDS011;38667;42.872;74.622;2022-10-31T04:20:05;12.95;;;5.43;;
52798;SDS011;38667;42.872;74.622;2022-10-31T04:22:32;19.70;;;5.85;;
52798;SDS011;38667;42.872;74.622;2022-10-31T04:25:00;17.10;;;7.20;;
52798;SDS011;38667;42.872;74.622;2022-10-31T04:27:26;21.98;;;8.35;;
52798;SDS011;38667;42.872;74.622;2022-10-31T04:29:53;22.42;;;10.05;;
52798;SDS011;38667;42.872;74.622;2022-10-31T04:32:19;17.27;;;9.40;;
52798;SDS011;38667;42.872;74.622;2022-10-31T04:34:46;16.30;;;7.78;;
52798;SDS011;38667;42.872;74.622;2022-10-31T04:37:12;12.35;;;6.50;;
52798;SDS011;38667;42.872;74.622;2022-10-31T04:39:38;13.25;;;4.53;;
52798;SDS011;38667;42.872;74.622;2022-10-31T04:42:06;7.97;;;4.18;;
52798;SDS011;38667;42.872;74.622;2022-10-31T04:44:32;2.78;;;2.22;;
52798;SDS011;38667;42.872;74.622;2022-10-31T04:46:59;3.70;;;2.13;;
52798;SDS011;38667;42.872;74.622;2022-10-31T04:49:25;5.93;;;2.90;;
52798;SDS011;38667;42.872;74.622;2022-10-31T04:51:51;10.02;;;4.55;;
52798;SDS011;38667;42.872;74.622;2022-10-31T04:54:17;6.43;;;3.40;;
52798;SDS011;38667;42.872;74.622;2022-10-31T04:56:44;15.13;;;4.85;;
52798;SDS011;38667;42.872;74.622;2022-10-31T04:59:12;17.75;;;5.38;;
52798;SDS011;38667;42.872;74.622;2022-10-31T05:01:38;13.80;;;6.03;;
52798;SDS011;38667;42.872;74.622;2022-10-31T05:04:04;24.13;;;7.85;;
52798;SDS011;38667;42.872;74.622;2022-10-31T05:06:30;39.08;;;13.82;;
52798;SDS011;38667;42.872;74.622;2022-10-31T05:08:57;29.38;;;11.50;;
52798;SDS011;38667;42.872;74.622;2022-10-31T05:11:23;9.07;;;4.07;;
52798;SDS011;38667;42.872;74.622;2022-10-31T05:13:49;11.75;;;4.15;;
52798;SDS011;38667;42.872;74.622;2022-10-31T05:16:17;13.63;;;4.60;;
52798;SDS011;38667;42.872;74.622;2022-10-31T05:18:44;4.47;;;2.38;;
52798;SDS011;38667;42.872;74.622;2022-10-31T05:21:10;6.78;;;2.60;;
52798;SDS011;38667;42.872;74.622;2022-10-31T05:23:36;10.57;;;5.07;;
52798;SDS011;38667;42.872;74.622;2022-10-31T05:26:03;8.68;;;3.83;;
52798;SDS011;38667;42.872;74.622;2022-10-31T05:28:29;9.20;;;4.15;;
52798;SDS011;38667;42.872;74.622;2022-10-31T05:30:55;13.65;;;5.22;;
52798;SDS011;38667;42.872;74.622;2022-10-31T05:33:23;8.43;;;3.97;;
52798;SDS011;38667;42.872;74.622;2022-10-31T05:35:50;10.75;;;5.13;;
52798;SDS011;38667;42.872;74.622;2022-10-31T05:38:16;14.52;;;4.45;;
52798;SDS011;38667;42.872;74.622;2022-10-31T05:40:42;17.38;;;6.03;;
52798;SDS011;38667;42.872;74.622;2022-10-31T05:43:08;20.48;;;8.05;;
52798;SDS011;38667;42.872;74.622;2022-10-31T05:45:35;16.67;;;7.45;;
52798;SDS011;38667;42.872;74.622;2022-10-31T05:48:01;5.75;;;2.80;;
52798;SDS011;38667;42.872;74.622;2022-10-31T05:50:30;7.22;;;2.58;;
52798;SDS011;38667;42.872;74.622;2022-10-31T05:52:57;20.13;;;7.65;;
52798;SDS011;38667;42.872;74.622;2022-10-31T05:55:25;9.00;;;4.07;;
52798;SDS011;38667;42.872;74.622;2022-10-31T05:57:51;12.98;;;5.45;;
52798;SDS011;38667;42.872;74.622;2022-10-31T06:00:18;17.05;;;6.93;;
52798;SDS011;38667;42.872;74.622;2022-10-31T06:02:45;10.95;;;4.93;;
52798;SDS011;38667;42.872;74.622;2022-10-31T06:05:12;7.05;;;3.47;;
52798;SDS011;38667;42.872;74.622;2022-10-31T06:07:40;6.70;;;3.20;;
52798;SDS011;38667;42.872;74.622;2022-10-31T06:10:06;24.05;;;8.80;;
52798;SDS011;38667;42.872;74.622;2022-10-31T06:12:34;14.48;;;5.72;;
52798;SDS011;38667;42.872;74.622;2022-10-31T06:15:01;32.45;;;11.65;;
52798;SDS011;38667;42.872;74.622;2022-10-31T06:17:27;13.15;;;5.10;;
52798;SDS011;38667;42.872;74.622;2022-10-31T06:19:53;10.43;;;5.25;;
52798;SDS011;38667;42.872;74.622;2022-10-31T06:22:19;13.55;;;5.03;;
52798;SDS011;38667;42.872;74.622;2022-10-31T06:24:47;7.38;;;4.15;;
52798;SDS011;38667;42.872;74.622;2022-10-31T06:27:13;5.70;;;2.50;;
52798;SDS011;38667;42.872;74.622;2022-10-31T06:29:40;4.30;;;2.50;;
52798;SDS011;38667;42.872;74.622;2022-10-31T06:32:08;11.63;;;4.00;;
52798;SDS011;38667;42.872;74.622;2022-10-31T06:34:35;3.60;;;2.10;;
52798;SDS011;38667;42.872;74.622;2022-10-31T06:37:02;4.45;;;2.05;;
52798;SDS011;38667;42.872;74.622;2022-10-31T06:39:28;8.43;;;3.03;;
52798;SDS011;38667;42.872;74.622;2022-10-31T06:41:56;6.22;;;2.90;;
52798;SDS011;38667;42.872;74.622;2022-10-31T06:44:22;8.32;;;2.65;;
52798;SDS011;38667;42.872;74.622;2022-10-31T06:46:48;5.32;;;3.17;;
52798;SDS011;38667;42.872;74.622;2022-10-31T06:49:15;15.10;;;4.45;;
52798;SDS011;38667;42.872;74.622;2022-10-31T06:51:41;15.00;;;4.57;;
52798;SDS011;38667;42.872;74.622;2022-10-31T06:54:08;20.80;;;6.50;;
52798;SDS011;38667;42.872;74.622;2022-10-31T06:56:34;41.10;;;10.20;;
52798;SDS011;38667;42.872;74.622;2022-10-31T06:59:02;32.97;;;8.63;;
52798;SDS011;38667;42.872;74.622;2022-10-31T07:01:28;30.75;;;6.90;;
52798;SDS011;38667;42.872;74.622;2022-10-31T07:03:54;21.55;;;5.72;;
52798;SDS011;38667;42.872;74.622;2022-10-31T07:06:21;18.95;;;5.88;;
52798;SDS011;38667;42.872;74.622;2022-10-31T07:08:47;10.82;;;4.95;;
52798;SDS011;38667;42.872;74.622;2022-10-31T07:11:13;12.07;;;5.05;;
52798;SDS011;38667;42.872;74.622;2022-10-31T07:13:40;9.30;;;4.45;;
52798;SDS011;38667;42.872;74.622;2022-10-31T07:16:08;9.77;;;5.05;;
52798;SDS011;38667;42.872;74.622;2022-10-31T07:18:34;8.75;;;4.68;;
52798;SDS011;38667;42.872;74.622;2022-10-31T07:21:01;19.00;;;8.35;;
52798;SDS011;38667;42.872;74.622;2022-10-31T07:23:27;7.97;;;4.40;;
52798;SDS011;38667;42.872;74.622;2022-10-31T07:25:54;11.60;;;5.57;;
52798;SDS011;38667;42.872;74.622;2022-10-31T07:28:21;11.40;;;4.90;;
52798;SDS011;38667;42.872;74.622;2022-10-31T07:30:49;11.60;;;4.72;;
52798;SDS011;38667;42.872;74.622;2022-10-31T07:33:17;6.72;;;3.50;;
52798;SDS011;38667;42.872;74.622;2022-10-31T07:35:43;7.15;;;3.60;;
52798;SDS011;38667;42.872;74.622;2022-10-31T07:38:10;12.30;;;4.18;;
52798;SDS011;38667;42.872;74.622;2022-10-31T07:40:37;10.38;;;5.00;;
52798;SDS011;38667;42.872;74.622;2022-10-31T07:43:04;21.08;;;5.75;;
52798;SDS011;38667;42.872;74.622;2022-10-31T07:45:30;17.35;;;7.97;;
52798;SDS011;38667;42.872;74.622;2022-10-31T07:47:57;15.60;;;4.82;;
52798;SDS011;38667;42.872;74.622;2022-10-31T07:50:25;7.93;;;4.00;;
52798;SDS011;38667;42.872;74.622;2022-10-31T07:52:58;9.65;;;4.32;;
52798;SDS011;38667;42.872;74.622;2022-10-31T07:55:25;11.40;;;3.45;;
52798;SDS011;38667;42.872;74.622;2022-10-31T07:57:55;9.27;;;3.90;;
52798;SDS011;38667;42.872;74.622;2022-10-31T08:00:22;6.82;;;3.60;;
52798;SDS011;38667;42.872;74.622;2022-10-31T08:02:48;8.95;;;4.78;;
52798;SDS011;38667;42.872;74.622;2022-10-31T08:05:21;6.43;;;4.38;;
52798;SDS011;38667;42.872;74.622;2022-10-31T08:07:49;7.15;;;4.20;;
52798;SDS011;38667;42.872;74.622;2022-10-31T08:10:15;8.23;;;5.10;;
52798;SDS011;38667;42.872;74.622;2022-10-31T08:12:41;6.70;;;4.00;;
52798;SDS011;38667;42.872;74.622;2022-10-31T08:15:08;10.70;;;4.47;;
52798;SDS011;38667;42.872;74.622;2022-10-31T08:17:35;7.10;;;4.10;;
52798;SDS011;38667;42.872;74.622;2022-10-31T08:20:02;9.48;;;4.60;;
52798;SDS011;38667;42.872;74.622;2022-10-31T08:22:28;6.72;;;4.40;;
52798;SDS011;38667;42.872;74.622;2022-10-31T08:24:56;8.57;;;4.57;;
52798;SDS011;38667;42.872;74.622;2022-10-31T08:27:22;8.80;;;4.40;;
52798;SDS011;38667;42.872;74.622;2022-10-31T08:29:49;6.03;;;3.83;;
52798;SDS011;38667;42.872;74.622;2022-10-31T08:32:15;8.30;;;3.67;;
52798;SDS011;38667;42.872;74.622;2022-10-31T08:34:41;9.57;;;4.32;;
52798;SDS011;38667;42.872;74.622;2022-10-31T08:37:07;7.07;;;4.25;;
52798;SDS011;38667;42.872;74.622;2022-10-31T08:39:34;14.32;;;7.32;;
52798;SDS011;38667;42.872;74.622;2022-10-31T08:42:02;9.10;;;5.00;;
52798;SDS011;38667;42.872;74.622;2022-10-31T08:44:28;8.27;;;4.13;;
52798;SDS011;38667;42.872;74.622;2022-10-31T08:46:54;16.52;;;5.43;;
52798;SDS011;38667;42.872;74.622;2022-10-31T08:49:20;11.90;;;5.70;;
52798;SDS011;38667;42.872;74.622;2022-10-31T08:51:47;6.63;;;3.75;;
52798;SDS011;38667;42.872;74.622;2022-10-31T08:54:13;10.02;;;4.32;;
52798;SDS011;38667;42.872;74.622;2022-10-31T08:56:40;12.38;;;4.25;;
52798;SDS011;38667;42.872;74.622;2022-10-31T08:59:07;7.13;;;4.00;;
52798;SDS011;38667;42.872;74.622;2022-10-31T09:01:34;10.13;;;4.85;;
52798;SDS011;38667;42.872;74.622;2022-10-31T09:04:00;12.45;;;5.38;;
52798;SDS011;38667;42.872;74.622;2022-10-31T09:06:26;14.25;;;5.32;;
52798;SDS011;38667;42.872;74.622;2022-10-31T09:08:53;14.55;;;5.72;;
52798;SDS011;38667;42.872;74.622;2022-10-31T09:11:19;16.48;;;6.72;;
52798;SDS011;38667;42.872;74.622;2022-10-31T09:13:45;10.27;;;4.88;;
52798;SDS011;38667;42.872;74.622;2022-10-31T09:16:13;15.68;;;5.65;;
52798;SDS011;38667;42.872;74.622;2022-10-31T09:18:39;6.35;;;4.05;;
52798;SDS011;38667;42.872;74.622;2022-10-31T09:21:06;7.47;;;3.90;;
52798;SDS011;38667;42.872;74.622;2022-10-31T09:23:33;11.25;;;5.35;;
52798;SDS011;38667;42.872;74.622;2022-10-31T09:26:00;12.00;;;5.30;;
52798;SDS011;38667;42.872;74.622;2022-10-31T09:28:26;9.68;;;4.43;;
52798;SDS011;38667;42.872;74.622;2022-10-31T09:30:53;13.02;;;4.97;;
52798;SDS011;38667;42.872;74.622;2022-10-31T09:33:21;10.48;;;4.50;;
52798;SDS011;38667;42.872;74.622;2022-10-31T09:35:48;7.88;;;4.32;;
52798;SDS011;38667;42.872;74.622;2022-10-31T09:38:14;5.65;;;3.50;;
52798;SDS011;38667;42.872;74.622;2022-10-31T09:40:42;10.63;;;5.10;;
52798;SDS011;38667;42.872;74.622;2022-10-31T09:43:13;8.95;;;4.50;;
52798;SDS011;38667;42.872;74.622;2022-10-31T09:45:50;5.53;;;3.83;;
52798;SDS011;38667;42.872;74.622;2022-10-31T09:48:30;11.15;;;4.10;;
52798;SDS011;38667;42.872;74.622;2022-10-31T09:51:06;9.68;;;6.07;;
52798;SDS011;38667;42.872;74.622;2022-10-31T09:53:37;14.00;;;7.32;;
52798;SDS011;38667;42.872;74.622;2022-10-31T09:56:07;15.73;;;8.30;;
52798;SDS011;38667;42.872;74.622;2022-10-31T09:58:40;15.55;;;5.18;;
52798;SDS011;38667;42.872;74.622;2022-10-31T10:01:22;9.05;;;4.50;;
52798;SDS011;38667;42.872;74.622;2022-10-31T10:04:05;16.38;;;8.68;;
52798;SDS011;38667;42.872;74.622;2022-10-31T10:06:43;8.50;;;5.75;;
52798;SDS011;38667;42.872;74.622;2022-10-31T10:09:13;9.02;;;5.75;;
52798;SDS011;38667;42.872;74.622;2022-10-31T10:11:43;18.73;;;10.00;;
52798;SDS011;38667;42.872;74.622;2022-10-31T10:14:27;21.90;;;8.00;;
52798;SDS011;38667;42.872;74.622;2022-10-31T10:17:09;9.75;;;6.95;;
52798;SDS011;38667;42.872;74.622;2022-10-31T10:19:48;15.65;;;9.82;;
52798;SDS011;38667;42.872;74.622;2022-10-31T10:22:25;19.48;;;11.98;;
52798;SDS011;38667;42.872;74.622;2022-10-31T10:25:10;24.80;;;12.18;;
52798;SDS011;38667;42.872;74.622;2022-10-31T10:27:46;46.13;;;17.83;;
52798;SDS011;38667;42.872;74.622;2022-10-31T10:30:20;45.08;;;17.73;;
52798;SDS011;38667;42.872;74.622;2022-10-31T10:32:49;16.58;;;8.13;;
52798;SDS011;38667;42.872;74.622;2022-10-31T10:35:21;78.57;;;20.70;;
52798;SDS011;38667;42.872;74.622;2022-10-31T10:37:52;19.90;;;8.25;;
52798;SDS011;38667;42.872;74.622;2022-10-31T10:40:24;18.23;;;10.95;;
52798;SDS011;38667;42.872;74.622;2022-10-31T10:42:55;29.40;;;12.45;;
52798;SDS011;38667;42.872;74.622;2022-10-31T10:45:26;15.10;;;7.35;;
52798;SDS011;38667;42.872;74.622;2022-10-31T10:47:54;188.88;;;45.85;;
52798;SDS011;38667;42.872;74.622;2022-10-31T10:50:35;231.43;;;59.30;;
52798;SDS011;38667;42.872;74.622;2022-10-31T10:53:08;73.13;;;26.95;;
52798;SDS011;38667;42.872;74.622;2022-10-31T10:55:44;32.22;;;13.25;;
52798;SDS011;38667;42.872;74.622;2022-10-31T10:58:16;37.40;;;13.73;;
52798;SDS011;38667;42.872;74.622;2022-10-31T11:00:43;16.25;;;6.47;;
52798;SDS011;38667;42.872;74.622;2022-10-31T11:03:10;20.50;;;9.57;;
52798;SDS011;38667;42.872;74.622;2022-10-31T11:05:40;26.92;;;12.32;;
52798;SDS011;38667;42.872;74.622;2022-10-31T11:08:10;24.60;;;11.77;;
52798;SDS011;38667;42.872;74.622;2022-10-31T11:10:37;25.20;;;13.85;;
52798;SDS011;38667;42.872;74.622;2022-10-31T11:13:04;35.92;;;20.17;;
52798;SDS011;38667;42.872;74.622;2022-10-31T11:15:50;25.33;;;13.00;;
52798;SDS011;38667;42.872;74.622;2022-10-31T11:18:20;31.42;;;16.38;;
52798;SDS011;38667;42.872;74.622;2022-10-31T11:20:52;34.80;;;17.88;;
52798;SDS011;38667;42.872;74.622;2022-10-31T11:23:20;28.45;;;14.63;;
52798;SDS011;38667;42.872;74.622;2022-10-31T11:25:55;24.48;;;14.15;;
52798;SDS011;38667;42.872;74.622;2022-10-31T11:28:22;19.17;;;11.90;;
52798;SDS011;38667;42.872;74.622;2022-10-31T11:30:50;21.38;;;11.27;;
52798;SDS011;38667;42.872;74.622;2022-10-31T11:33:19;30.60;;;14.43;;
52798;SDS011;38667;42.872;74.622;2022-10-31T11:35:48;34.80;;;15.63;;
52798;SDS011;38667;42.872;74.622;2022-10-31T11:38:18;39.72;;;18.58;;
52798;SDS011;38667;42.872;74.622;2022-10-31T11:40:53;73.20;;;29.00;;
52798;SDS011;38667;42.872;74.622;2022-10-31T11:43:22;73.93;;;25.88;;
52798;SDS011;38667;42.872;74.622;2022-10-31T11:45:49;48.80;;;23.38;;
52798;SDS011;38667;42.872;74.622;2022-10-31T11:48:16;46.17;;;22.77;;
52798;SDS011;38667;42.872;74.622;2022-10-31T11:50:47;41.10;;;22.73;;
52798;SDS011;38667;42.872;74.622;2022-10-31T11:53:17;42.55;;;21.92;;
52798;SDS011;38667;42.872;74.622;2022-10-31T11:55:45;41.38;;;21.15;;
52798;SDS011;38667;42.872;74.622;2022-10-31T11:58:19;37.67;;;20.17;;
52798;SDS011;38667;42.872;74.622;2022-10-31T12:00:48;70.07;;;34.45;;
52798;SDS011;38667;42.872;74.622;2022-10-31T12:03:20;71.20;;;36.03;;
52798;SDS011;38667;42.872;74.622;2022-10-31T12:06:03;75.85;;;36.97;;
52798;SDS011;38667;42.872;74.622;2022-10-31T12:08:35;102.82;;;46.95;;
52798;SDS011;38667;42.872;74.622;2022-10-31T12:11:04;90.82;;;46.83;;
52798;SDS011;38667;42.872;74.622;2022-10-31T12:13:39;103.65;;;53.60;;
52798;SDS011;38667;42.872;74.622;2022-10-31T12:16:15;91.88;;;51.00;;
52798;SDS011;38667;42.872;74.622;2022-10-31T12:18:53;79.78;;;44.60;;
52798;SDS011;38667;42.872;74.622;2022-10-31T12:21:31;76.07;;;39.83;;
52798;SDS011;38667;42.872;74.622;2022-10-31T12:24:17;63.10;;;34.10;;
52798;SDS011;38667;42.872;74.622;2022-10-31T12:26:54;56.03;;;29.60;;
52798;SDS011;38667;42.872;74.622;2022-10-31T12:29:35;48.90;;;25.77;;
52798;SDS011;38667;42.872;74.622;2022-10-31T12:32:17;63.25;;;33.63;;
52798;SDS011;38667;42.872;74.622;2022-10-31T12:34:56;67.60;;;35.35;;
52798;SDS011;38667;42.872;74.622;2022-10-31T12:38:00;113.05;;;50.20;;
52798;SDS011;38667;42.872;74.622;2022-10-31T12:40:46;140.63;;;60.97;;
52798;SDS011;38667;42.872;74.622;2022-10-31T12:43:27;164.57;;;71.03;;
52798;SDS011;38667;42.872;74.622;2022-10-31T12:46:06;190.63;;;87.03;;
52798;SDS011;38667;42.872;74.622;2022-10-31T12:48:44;212.82;;;98.03;;
52798;SDS011;38667;42.872;74.622;2022-10-31T12:51:30;230.05;;;110.35;;
52798;SDS011;38667;42.872;74.622;2022-10-31T12:54:08;218.98;;;111.47;;
52798;SDS011;38667;42.872;74.622;2022-10-31T12:56:54;195.65;;;93.68;;
52798;SDS011;38667;42.872;74.622;2022-10-31T12:59:29;165.48;;;82.82;;
52798;SDS011;38667;42.872;74.622;2022-10-31T13:02:00;176.75;;;84.43;;
52798;SDS011;38667;42.872;74.622;2022-10-31T13:04:36;159.98;;;77.97;;
52798;SDS011;38667;42.872;74.622;2022-10-31T13:07:09;143.68;;;69.95;;
52798;SDS011;38667;42.872;74.622;2022-10-31T13:09:40;139.05;;;68.72;;
52798;SDS011;38667;42.872;74.622;2022-10-31T13:12:13;126.03;;;63.38;;
52798;SDS011;38667;42.872;74.622;2022-10-31T13:14:43;132.30;;;64.97;;
52798;SDS011;38667;42.872;74.622;2022-10-31T13:17:27;144.15;;;65.75;;
52798;SDS011;38667;42.872;74.622;2022-10-31T13:20:00;126.22;;;63.70;;
52798;SDS011;38667;42.872;74.622;2022-10-31T13:22:41;129.30;;;64.15;;
52798;SDS011;38667;42.872;74.622;2022-10-31T13:25:13;211.35;;;97.53;;
52798;SDS011;38667;42.872;74.622;2022-10-31T13:27:45;254.52;;;128.38;;
52798;SDS011;38667;42.872;74.622;2022-10-31T13:30:17;270.63;;;129.38;;
52798;SDS011;38667;42.872;74.622;2022-10-31T13:32:45;297.00;;;143.05;;
52798;SDS011;38667;42.872;74.622;2022-10-31T13:35:17;337.55;;;169.88;;
52798;SDS011;38667;42.872;74.622;2022-10-31T13:37:52;320.73;;;172.10;;
52798;SDS011;38667;42.872;74.622;2022-10-31T13:40:35;296.45;;;161.77;;
52798;SDS011;38667;42.872;74.622;2022-10-31T13:43:12;286.80;;;151.63;;
52798;SDS011;38667;42.872;74.622;2022-10-31T13:45:47;248.75;;;138.45;;
52798;SDS011;38667;42.872;74.622;2022-10-31T13:48:19;212.80;;;115.68;;
52798;SDS011;38667;42.872;74.622;2022-10-31T13:51:04;212.07;;;108.80;;
52798;SDS011;38667;42.872;74.622;2022-10-31T13:53:35;199.18;;;104.30;;
52798;SDS011;38667;42.872;74.622;2022-10-31T13:56:18;193.35;;;101.32;;
52798;SDS011;38667;42.872;74.622;2022-10-31T13:59:05;331.48;;;158.73;;
52798;SDS011;38667;42.872;74.622;2022-10-31T14:01:48;287.38;;;140.45;;
52798;SDS011;38667;42.872;74.622;2022-10-31T14:04:17;290.27;;;140.85;;
52798;SDS011;38667;42.872;74.622;2022-10-31T14:06:47;329.70;;;152.77;;
52798;SDS011;38667;42.872;74.622;2022-10-31T14:09:31;282.25;;;143.20;;
52798;SDS011;38667;42.872;74.622;2022-10-31T14:12:00;341.52;;;165.40;;
52798;SDS011;38667;42.872;74.622;2022-10-31T14:14:33;295.02;;;148.13;;
52798;SDS011;38667;42.872;74.622;2022-10-31T14:17:05;278.77;;;140.77;;
52798;SDS011;38667;42.872;74.622;2022-10-31T14:19:41;255.32;;;135.52;;
52798;SDS011;38667;42.872;74.622;2022-10-31T14:22:18;251.98;;;125.00;;
52798;SDS011;38667;42.872;74.622;2022-10-31T14:24:45;273.60;;;141.68;;
52798;SDS011;38667;42.872;74.622;2022-10-31T14:30:19;254.25;;;133.85;;
52798;SDS011;38667;42.872;74.622;2022-10-31T14:32:49;254.30;;;139.25;;
52798;SDS011;38667;42.872;74.622;2022-10-31T14:35:17;248.27;;;133.52;;
52798;SDS011;38667;42.872;74.622;2022-10-31T14:37:57;227.43;;;124.35;;
52798;SDS011;38667;42.872;74.622;2022-10-31T14:40:54;208.63;;;114.30;;
52798;SDS011;38667;42.872;74.622;2022-10-31T14:43:45;213.15;;;113.03;;
52798;SDS011;38667;42.872;74.622;2022-10-31T14:46:31;217.15;;;112.35;;
52798;SDS011;38667;42.872;74.622;2022-10-31T14:49:13;223.68;;;117.85;;